Time;durP1;ratioP1;P1;durP2;ratioP2;P2;SDS_P1;SDS_P2;PMS_P1;PMS_P2;Temp;Humidity;BMP_temperature;BMP_pressure;BME280_temperature;BME280_humidity;BME280_pressure;Samples;Min_cycle;Max_cycle;Signal;HPM_P1;HPM_P2
2022/01/29 00:01:15;;;;;;;30.33;19.13;;;;;;;;;;5016746;28;20242;-64
2022/01/29 00:03:42;;;;;;;34.40;19.13;;;;;;;;;;5016259;28;20172;-64
2022/01/29 00:06:08;;;;;;;34.90;18.40;;;;;;;;;;5016125;28;20172;-63
2022/01/29 00:08:33;;;;;;;30.13;18.70;;;;;;;;;;5015511;28;20247;-63
2022/01/29 00:11:07;;;;;;;33.83;19.57;;;;;;;;;;5014849;28;20210;-64
2022/01/29 00:13:34;;;;;;;35.83;19.37;;;;;;;;;;5016281;28;20642;-63
2022/01/29 00:16:00;;;;;;;39.33;20.73;;;;;;;;;;5014649;28;20176;-63
2022/01/29 00:18:26;;;;;;;31.93;18.30;;;;;;;;;;5015715;28;20203;-64
2022/01/29 00:20:52;;;;;;;32.17;21.80;;;;;;;;;;5016012;28;20188;-63
2022/01/29 00:23:18;;;;;;;36.77;22.03;;;;;;;;;;5015898;28;20183;-64
2022/01/29 00:25:44;;;;;;;34.80;20.80;;;;;;;;;;5014537;28;20683;-64
2022/01/29 00:28:12;;;;;;;23.73;12.27;;;;;;;;;;5015241;28;20187;-64
2022/01/29 00:30:42;;;;;;;33.73;22.33;;;;;;;;;;5015686;28;20202;-64
2022/01/29 00:33:08;;;;;;;34.47;21.63;;;;;;;;;;5016162;28;20179;-64
2022/01/29 00:35:34;;;;;;;37.40;22.67;;;;;;;;;;5016010;28;20183;-65
2022/01/29 00:38:00;;;;;;;36.63;22.87;;;;;;;;;;5046620;22;20227;-67
2022/01/29 00:40:26;;;;;;;36.37;21.13;;;;;;;;;;5014217;28;20251;-67
2022/01/29 00:42:53;;;;;;;34.63;21.13;;;;;;;;;;5012874;28;20184;-68
2022/01/29 00:45:19;;;;;;;33.27;21.63;;;;;;;;;;5012964;28;20180;-68
2022/01/29 00:47:44;;;;;;;38.23;23.20;;;;;;;;;;5014481;28;20268;-67
2022/01/29 00:50:11;;;;;;;37.73;22.87;;;;;;;;;;5014553;28;20180;-67
2022/01/29 00:52:40;;;;;;;37.00;22.40;;;;;;;;;;5012823;28;20187;-67
2022/01/29 00:55:07;;;;;;;35.30;22.17;;;;;;;;;;5013960;28;20187;-68
2022/01/29 00:57:35;;;;;;;40.00;21.97;;;;;;;;;;5012576;28;20219;-68
2022/01/29 01:00:01;;;;;;;36.30;21.67;;;;;;;;;;5013902;28;20171;-68
2022/01/29 01:02:27;;;;;;;37.10;21.57;;;;;;;;;;5013752;28;20176;-67
2022/01/29 01:04:53;;;;;;;34.97;21.40;;;;;;;;;;5014183;28;20183;-68
2022/01/29 01:07:19;;;;;;;41.70;23.70;;;;;;;;;;5012427;28;20294;-67
2022/01/29 01:09:45;;;;;;;34.93;22.73;;;;;;;;;;5014104;28;20180;-67
2022/01/29 01:12:10;;;;;;;39.97;22.73;;;;;;;;;;5012626;28;20237;-67
2022/01/29 01:14:37;;;;;;;37.33;22.20;;;;;;;;;;5013748;28;20188;-68
2022/01/29 01:17:04;;;;;;;36.17;23.23;;;;;;;;;;5013703;28;20200;-67
2022/01/29 01:19:30;;;;;;;43.50;25.23;;;;;;;;;;5011777;28;20175;-67
2022/01/29 01:21:56;;;;;;;40.40;24.93;;;;;;;;;;5014382;28;20207;-67
2022/01/29 01:24:23;;;;;;;47.83;26.40;;;;;;;;;;5013585;28;20251;-67
2022/01/29 01:26:50;;;;;;;41.67;24.17;;;;;;;;;;5014071;28;20210;-68
2022/01/29 01:29:16;;;;;;;39.60;24.27;;;;;;;;;;5013420;28;20282;-68
2022/01/29 01:31:44;;;;;;;39.93;24.80;;;;;;;;;;5013607;28;20176;-68
2022/01/29 01:34:10;;;;;;;43.73;25.40;;;;;;;;;;5013520;28;20178;-68
2022/01/29 01:36:44;;;;;;;39.57;24.90;;;;;;;;;;5012085;28;20212;-68
2022/01/29 01:39:12;;;;;;;38.13;24.83;;;;;;;;;;5012048;28;20208;-67
2022/01/29 01:41:51;;;;;;;34.77;24.87;;;;;;;;;;5012157;28;20175;-67
2022/01/29 01:44:18;;;;;;;42.73;25.13;;;;;;;;;;5013411;28;20175;-67
2022/01/29 01:46:44;;;;;;;40.40;25.10;;;;;;;;;;5012116;28;20215;-68
2022/01/29 01:49:10;;;;;;;38.40;22.47;;;;;;;;;;5013354;28;20202;-67
2022/01/29 01:51:36;;;;;;;36.83;23.07;;;;;;;;;;5013346;28;20183;-68
2022/01/29 01:54:03;;;;;;;38.87;23.90;;;;;;;;;;5012096;28;20214;-68
2022/01/29 01:56:29;;;;;;;40.87;23.73;;;;;;;;;;5013196;28;20184;-67
2022/01/29 01:58:57;;;;;;;39.43;22.10;;;;;;;;;;5013219;28;20243;-67
2022/01/29 02:01:23;;;;;;;41.80;23.50;;;;;;;;;;5013273;28;20234;-67
2022/01/29 02:03:49;;;;;;;40.53;22.50;;;;;;;;;;5013250;28;20180;-67
2022/01/29 02:06:16;;;;;;;36.47;22.90;;;;;;;;;;5011845;28;20187;-67
2022/01/29 02:08:42;;;;;;;37.30;23.60;;;;;;;;;;5013413;28;20196;-67
2022/01/29 02:11:09;;;;;;;40.83;24.13;;;;;;;;;;5013278;28;20172;-67
2022/01/29 02:13:35;;;;;;;43.43;25.87;;;;;;;;;;5013129;28;20176;-67
2022/01/29 02:16:02;;;;;;;38.50;23.33;;;;;;;;;;5011826;28;20600;-67
2022/01/29 02:18:28;;;;;;;38.67;23.00;;;;;;;;;;5013195;28;20208;-67
2022/01/29 02:20:54;;;;;;;41.40;25.50;;;;;;;;;;5013434;28;20180;-68
2022/01/29 02:23:20;;;;;;;41.47;23.50;;;;;;;;;;5013092;28;20172;-67
2022/01/29 02:25:50;;;;;;;34.50;21.80;;;;;;;;;;5013003;28;20552;-67
2022/01/29 02:28:20;;;;;;;40.23;24.70;;;;;;;;;;5011606;28;20739;-67
2022/01/29 02:30:56;;;;;;;43.23;23.63;;;;;;;;;;5014910;28;20188;-67
2022/01/29 02:33:22;;;;;;;32.50;20.67;;;;;;;;;;5016870;28;20183;-67
2022/01/29 02:35:48;;;;;;;46.67;25.57;;;;;;;;;;5016576;28;20180;-68
2022/01/29 02:38:16;;;;;;;40.50;25.07;;;;;;;;;;5016152;28;20216;-67
2022/01/29 02:40:48;;;;;;;41.30;23.50;;;;;;;;;;5015211;28;20176;-68
2022/01/29 02:43:19;;;;;;;42.60;25.50;;;;;;;;;;5016248;28;20160;-67
2022/01/29 02:45:45;;;;;;;39.33;24.33;;;;;;;;;;5017005;28;20693;-67
2022/01/29 02:48:11;;;;;;;36.60;23.73;;;;;;;;;;5018264;28;20567;-67
2022/01/29 02:50:38;;;;;;;39.00;23.73;;;;;;;;;;5018212;28;20671;-67
2022/01/29 02:53:05;;;;;;;39.23;24.20;;;;;;;;;;5017740;28;20655;-67
2022/01/29 02:55:31;;;;;;;37.70;25.23;;;;;;;;;;5017165;28;20184;-67
2022/01/29 02:57:57;;;;;;;37.30;23.30;;;;;;;;;;5016422;28;20226;-67
2022/01/29 03:00:23;;;;;;;38.50;24.97;;;;;;;;;;5016802;28;20234;-67
2022/01/29 03:02:49;;;;;;;38.77;24.53;;;;;;;;;;5014900;28;20176;-67
2022/01/29 03:05:15;;;;;;;43.53;25.13;;;;;;;;;;5016260;28;20523;-67
2022/01/29 03:07:41;;;;;;;38.47;24.80;;;;;;;;;;5015957;28;20196;-67
2022/01/29 03:10:07;;;;;;;40.10;23.57;;;;;;;;;;5015888;28;20222;-67
2022/01/29 03:12:33;;;;;;;44.40;25.80;;;;;;;;;;5015906;28;20245;-67
2022/01/29 03:14:59;;;;;;;42.07;24.60;;;;;;;;;;5016079;28;20648;-67
2022/01/29 03:17:25;;;;;;;43.47;25.63;;;;;;;;;;5015546;28;20287;-67
2022/01/29 03:19:53;;;;;;;39.97;24.23;;;;;;;;;;5015757;28;20667;-67
2022/01/29 03:22:19;;;;;;;37.70;23.40;;;;;;;;;;5015962;28;20184;-67
2022/01/29 03:24:45;;;;;;;39.47;22.63;;;;;;;;;;5016165;28;20286;-67
2022/01/29 03:27:11;;;;;;;37.90;24.07;;;;;;;;;;5015885;28;20183;-67
2022/01/29 03:29:37;;;;;;;37.27;24.07;;;;;;;;;;5015732;28;20719;-67
2022/01/29 03:32:03;;;;;;;44.87;24.50;;;;;;;;;;5014394;28;20191;-67
2022/01/29 03:34:29;;;;;;;38.30;22.60;;;;;;;;;;5015428;28;20310;-67
2022/01/29 03:36:56;;;;;;;33.93;23.20;;;;;;;;;;5013911;28;20206;-67
2022/01/29 03:39:24;;;;;;;38.33;24.27;;;;;;;;;;5015177;28;20187;-67
2022/01/29 03:41:50;;;;;;;35.90;22.93;;;;;;;;;;5013058;28;20186;-67
2022/01/29 03:44:16;;;;;;;39.10;23.43;;;;;;;;;;5015278;28;20180;-67
2022/01/29 03:46:42;;;;;;;35.80;19.90;;;;;;;;;;5013974;28;20267;-67
2022/01/29 03:49:08;;;;;;;25.67;16.67;;;;;;;;;;5013839;28;20772;-67
2022/01/29 03:51:34;;;;;;;29.83;19.43;;;;;;;;;;5013803;28;20180;-67
2022/01/29 03:54:00;;;;;;;37.10;22.07;;;;;;;;;;5013967;28;20211;-67
2022/01/29 03:56:26;;;;;;;33.77;20.70;;;;;;;;;;5013701;28;20222;-67
2022/01/29 03:58:52;;;;;;;34.83;22.07;;;;;;;;;;5013670;28;20245;-67
2022/01/29 04:01:18;;;;;;;31.73;19.73;;;;;;;;;;5013793;28;20271;-68
2022/01/29 04:03:44;;;;;;;33.57;22.10;;;;;;;;;;5015428;28;20249;-67
2022/01/29 04:06:11;;;;;;;31.23;19.70;;;;;;;;;;5015352;28;20633;-67
2022/01/29 04:08:41;;;;;;;32.03;20.70;;;;;;;;;;5014638;28;20204;-67
2022/01/29 04:11:08;;;;;;;31.90;21.33;;;;;;;;;;5014792;28;20318;-67
2022/01/29 04:13:36;;;;;;;36.83;21.80;;;;;;;;;;5014613;28;20598;-67
2022/01/29 04:16:02;;;;;;;34.37;21.70;;;;;;;;;;5014642;28;20179;-67
2022/01/29 04:18:28;;;;;;;29.77;18.90;;;;;;;;;;5014525;28;20208;-67
2022/01/29 04:20:54;;;;;;;33.83;21.07;;;;;;;;;;5014770;28;20222;-67
2022/01/29 04:23:20;;;;;;;30.83;19.87;;;;;;;;;;5013207;28;20234;-67
2022/01/29 04:25:46;;;;;;;33.77;19.37;;;;;;;;;;5013176;28;20180;-67
2022/01/29 04:28:12;;;;;;;34.57;22.13;;;;;;;;;;5014411;28;20196;-67
2022/01/29 04:30:45;;;;;;;27.80;19.53;;;;;;;;;;5014640;28;20698;-67
2022/01/29 04:35:43;;;;;;;30.67;19.97;;;;;;;;;;5014669;28;20168;-68
2022/01/29 04:38:09;;;;;;;24.40;17.97;;;;;;;;;;5014445;28;20345;-67
2022/01/29 04:40:35;;;;;;;33.40;18.83;;;;;;;;;;5012934;28;20180;-67
2022/01/29 04:43:05;;;;;;;30.50;17.27;;;;;;;;;;5012900;28;20759;-67
2022/01/29 04:45:31;;;;;;;23.50;16.30;;;;;;;;;;5012873;28;20184;-68
2022/01/29 04:47:57;;;;;;;26.83;16.50;;;;;;;;;;5014372;28;20338;-67
2022/01/29 04:50:23;;;;;;;27.53;17.03;;;;;;;;;;5012996;28;20215;-67
2022/01/29 04:52:49;;;;;;;24.70;16.63;;;;;;;;;;5012920;28;20618;-67
2022/01/29 04:55:15;;;;;;;27.73;17.30;;;;;;;;;;5014002;28;20266;-67
2022/01/29 04:57:41;;;;;;;25.40;16.17;;;;;;;;;;5014025;28;20243;-67
2022/01/29 05:00:20;;;;;;;24.60;16.20;;;;;;;;;;5012570;28;20188;-67
2022/01/29 05:02:51;;;;;;;24.00;14.90;;;;;;;;;;5014206;28;20163;-67
2022/01/29 05:05:17;;;;;;;25.50;15.23;;;;;;;;;;5012534;28;20180;-67
2022/01/29 05:07:43;;;;;;;24.13;15.27;;;;;;;;;;5013895;28;20200;-67
2022/01/29 05:10:09;;;;;;;22.53;14.67;;;;;;;;;;5014110;28;20184;-67
2022/01/29 05:12:51;;;;;;;23.87;15.23;;;;;;;;;;5013681;28;20176;-68
2022/01/29 05:29:04;;;;;;;56.33;28.97;;;;;;;;;;5013802;28;20218;-67
2022/01/29 05:31:31;;;;;;;26.03;16.63;;;;;;;;;;5013761;28;20176;-67
2022/01/29 05:33:57;;;;;;;28.17;18.30;;;;;;;;;;5012329;28;20640;-68
2022/01/29 05:36:23;;;;;;;34.93;23.17;;;;;;;;;;5013416;28;20237;-67
2022/01/29 05:38:49;;;;;;;50.50;28.10;;;;;;;;;;5012035;28;20246;-67
2022/01/29 05:41:15;;;;;;;29.03;18.17;;;;;;;;;;5013652;28;20549;-67
2022/01/29 05:43:43;;;;;;;29.17;17.40;;;;;;;;;;5013397;28;20199;-67
2022/01/29 05:46:09;;;;;;;52.70;27.33;;;;;;;;;;5013397;28;20171;-67
2022/01/29 05:48:35;;;;;;;33.57;22.07;;;;;;;;;;5012069;28;20238;-67
2022/01/29 05:51:01;;;;;;;46.20;25.70;;;;;;;;;;5012098;28;20190;-67
2022/01/29 05:53:27;;;;;;;48.20;28.13;;;;;;;;;;5013322;28;20187;-67
2022/01/29 05:55:53;;;;;;;43.00;25.13;;;;;;;;;;5013570;28;20180;-67
2022/01/29 05:58:19;;;;;;;26.03;18.43;;;;;;;;;;5013367;28;20212;-67
2022/01/29 06:00:45;;;;;;;37.63;23.10;;;;;;;;;;5012047;28;20186;-67
2022/01/29 06:03:11;;;;;;;24.00;15.37;;;;;;;;;;5013140;28;20180;-67
2022/01/29 06:05:37;;;;;;;23.47;16.53;;;;;;;;;;5016366;28;20175;-67
2022/01/29 06:08:04;;;;;;;22.03;14.97;;;;;;;;;;5016951;28;20207;-67
2022/01/29 06:10:30;;;;;;;25.37;17.17;;;;;;;;;;5017003;28;20711;-67
2022/01/29 06:13:08;;;;;;;24.70;18.27;;;;;;;;;;5017394;28;20246;-67
2022/01/29 06:15:37;;;;;;;21.87;15.60;;;;;;;;;;5016860;28;20234;-68
2022/01/29 06:18:03;;;;;;;20.53;15.07;;;;;;;;;;5015469;28;20262;-68
2022/01/29 06:20:29;;;;;;;19.67;13.93;;;;;;;;;;5017015;28;20184;-67
2022/01/29 06:22:55;;;;;;;20.53;13.77;;;;;;;;;;5017371;28;20644;-68
2022/01/29 06:25:21;;;;;;;20.50;14.77;;;;;;;;;;5017269;28;20183;-68
2022/01/29 06:27:47;;;;;;;20.33;14.60;;;;;;;;;;5017050;28;20199;-67
2022/01/29 06:30:14;;;;;;;20.30;14.23;;;;;;;;;;5015316;28;20241;-67
2022/01/29 06:32:40;;;;;;;20.17;14.60;;;;;;;;;;5015231;28;20266;-67
2022/01/29 06:35:07;;;;;;;23.40;14.93;;;;;;;;;;5016566;28;20180;-67
2022/01/29 06:37:33;;;;;;;24.07;14.70;;;;;;;;;;5016213;28;20223;-68
2022/01/29 06:39:59;;;;;;;20.70;15.00;;;;;;;;;;5016475;28;20173;-67
2022/01/29 06:42:25;;;;;;;20.77;15.43;;;;;;;;;;5015138;28;20183;-65
2022/01/29 06:44:50;;;;;;;23.27;15.37;;;;;;;;;;5015242;28;20180;-68
2022/01/29 06:47:16;;;;;;;23.87;15.20;;;;;;;;;;5016586;28;20241;-67
2022/01/29 06:49:42;;;;;;;21.63;14.43;;;;;;;;;;5016311;28;20265;-68
2022/01/29 06:52:08;;;;;;;22.77;14.43;;;;;;;;;;5016289;28;20311;-67
2022/01/29 06:54:34;;;;;;;28.97;18.90;;;;;;;;;;5017547;28;20210;-67
2022/01/29 06:57:00;;;;;;;34.23;21.33;;;;;;;;;;5016017;28;20207;-67
2022/01/29 06:59:26;;;;;;;28.87;18.73;;;;;;;;;;5014930;28;20278;-67
2022/01/29 07:01:52;;;;;;;27.97;17.33;;;;;;;;;;5014746;28;20213;-67
2022/01/29 07:04:18;;;;;;;30.53;20.67;;;;;;;;;;5014811;28;20180;-67
2022/01/29 07:06:44;;;;;;;25.67;17.67;;;;;;;;;;5014790;28;20270;-68
2022/01/29 07:09:10;;;;;;;23.23;15.13;;;;;;;;;;5015946;28;20199;-67
2022/01/29 07:11:36;;;;;;;26.73;17.63;;;;;;;;;;5016466;28;20654;-67
2022/01/29 07:14:03;;;;;;;23.87;16.33;;;;;;;;;;5015839;28;20207;-67
2022/01/29 07:16:34;;;;;;;22.80;15.80;;;;;;;;;;5014667;28;20184;-67
2022/01/29 07:19:00;;;;;;;26.07;17.27;;;;;;;;;;5015964;28;20626;-67
2022/01/29 07:21:26;;;;;;;24.63;17.23;;;;;;;;;;5015629;28;20176;-67
2022/01/29 07:23:52;;;;;;;25.63;17.63;;;;;;;;;;5014369;28;20187;-67
2022/01/29 07:26:18;;;;;;;27.73;18.10;;;;;;;;;;5016148;28;20693;-67
2022/01/29 07:28:44;;;;;;;27.77;18.37;;;;;;;;;;5015625;28;20668;-67
2022/01/29 07:31:10;;;;;;;29.40;17.93;;;;;;;;;;5015557;28;20207;-67
2022/01/29 07:33:36;;;;;;;25.90;17.93;;;;;;;;;;5015665;28;20533;-67
2022/01/29 07:36:02;;;;;;;24.43;17.40;;;;;;;;;;5015367;28;20184;-67
2022/01/29 07:38:28;;;;;;;24.00;16.43;;;;;;;;;;5015036;28;20220;-68
2022/01/29 07:40:54;;;;;;;23.83;17.00;;;;;;;;;;5015212;28;20230;-67
2022/01/29 07:43:19;;;;;;;25.00;16.60;;;;;;;;;;5015355;28;20179;-67
2022/01/29 07:45:46;;;;;;;25.77;17.40;;;;;;;;;;5015226;28;20172;-67
2022/01/29 07:48:12;;;;;;;25.00;18.47;;;;;;;;;;5013821;28;20290;-67
2022/01/29 07:50:38;;;;;;;24.30;17.30;;;;;;;;;;5015062;28;20275;-67
2022/01/29 07:53:04;;;;;;;24.87;17.33;;;;;;;;;;5013795;28;20219;-67
2022/01/29 07:55:30;;;;;;;25.23;17.13;;;;;;;;;;5015089;28;20267;-67
2022/01/29 07:57:57;;;;;;;24.23;17.70;;;;;;;;;;5014826;28;20207;-67
2022/01/29 08:00:23;;;;;;;20.77;14.20;;;;;;;;;;5013668;28;20179;-67
2022/01/29 08:02:49;;;;;;;18.60;14.37;;;;;;;;;;5013727;28;20183;-67
2022/01/29 08:05:15;;;;;;;23.43;16.73;;;;;;;;;;5013697;28;20175;-67
2022/01/29 08:07:41;;;;;;;24.37;16.23;;;;;;;;;;5014857;28;20211;-67
2022/01/29 08:10:08;;;;;;;20.53;15.17;;;;;;;;;;5014691;28;20194;-67
2022/01/29 08:12:34;;;;;;;23.57;15.63;;;;;;;;;;5015135;28;20262;-67
2022/01/29 08:15:00;;;;;;;23.27;15.73;;;;;;;;;;5014978;28;20619;-67
2022/01/29 08:17:26;;;;;;;25.07;16.20;;;;;;;;;;5014480;28;20239;-67
2022/01/29 08:19:52;;;;;;;22.80;16.87;;;;;;;;;;5015394;28;20175;-64
2022/01/29 08:22:18;;;;;;;21.90;16.10;;;;;;;;;;5014881;28;20183;-64
2022/01/29 08:24:44;;;;;;;23.37;16.97;;;;;;;;;;5014474;28;20184;-65
2022/01/29 08:27:11;;;;;;;20.20;15.73;;;;;;;;;;5015621;28;20530;-65
2022/01/29 08:29:37;;;;;;;21.40;16.00;;;;;;;;;;5015059;28;20187;-67
2022/01/29 08:32:03;;;;;;;22.93;16.77;;;;;;;;;;5015006;28;20238;-65
2022/01/29 08:34:29;;;;;;;20.10;16.43;;;;;;;;;;5013027;28;20211;-65
2022/01/29 08:36:58;;;;;;;24.20;16.33;;;;;;;;;;5014153;28;20231;-67
2022/01/29 08:39:24;;;;;;;21.03;15.97;;;;;;;;;;5013075;28;20198;-67
2022/01/29 08:41:51;;;;;;;18.03;13.93;;;;;;;;;;5014239;28;20179;-65
2022/01/29 08:44:17;;;;;;;21.50;14.83;;;;;;;;;;5013038;28;20184;-65
2022/01/29 08:46:43;;;;;;;19.70;14.13;;;;;;;;;;5014827;28;20242;-65
2022/01/29 08:49:09;;;;;;;21.23;15.70;;;;;;;;;;5012854;28;20200;-66
2022/01/29 08:51:35;;;;;;;20.70;14.87;;;;;;;;;;5014370;28;20247;-65
2022/01/29 08:54:01;;;;;;;19.87;15.40;;;;;;;;;;5014248;28;20176;-66
2022/01/29 08:56:27;;;;;;;25.70;17.00;;;;;;;;;;5014357;28;20180;-65
2022/01/29 08:58:53;;;;;;;21.93;15.20;;;;;;;;;;5013985;28;20208;-66
2022/01/29 09:01:19;;;;;;;21.93;15.33;;;;;;;;;;5014121;28;20176;-66
2022/01/29 09:03:45;;;;;;;20.83;16.00;;;;;;;;;;5012585;28;20180;-66
2022/01/29 09:06:11;;;;;;;20.93;15.83;;;;;;;;;;5014058;28;20179;-66
2022/01/29 09:08:38;;;;;;;21.23;15.60;;;;;;;;;;5012673;28;20258;-66
2022/01/29 09:11:04;;;;;;;21.43;15.50;;;;;;;;;;5014246;28;20172;-66
2022/01/29 09:13:30;;;;;;;20.67;15.13;;;;;;;;;;5014222;28;20176;-65
2022/01/29 09:15:57;;;;;;;19.03;14.93;;;;;;;;;;5014279;28;20238;-66
2022/01/29 09:18:23;;;;;;;21.17;16.27;;;;;;;;;;5013854;28;20260;-66
2022/01/29 09:20:49;;;;;;;22.57;15.80;;;;;;;;;;5013765;28;20182;-65
2022/01/29 09:23:15;;;;;;;18.07;13.57;;;;;;;;;;5013680;28;20175;-66
2022/01/29 09:25:41;;;;;;;23.13;18.97;;;;;;;;;;5014345;28;20254;-66
2022/01/29 09:28:08;;;;;;;26.07;18.60;;;;;;;;;;5013573;28;20208;-65
2022/01/29 09:30:34;;;;;;;23.07;17.37;;;;;;;;;;5014704;28;20175;-65
2022/01/29 09:33:01;;;;;;;23.23;17.27;;;;;;;;;;5012464;28;20214;-65
2022/01/29 09:35:27;;;;;;;25.03;16.53;;;;;;;;;;5012373;28;20636;-65
2022/01/29 09:37:54;;;;;;;19.67;15.67;;;;;;;;;;5013558;28;20219;-65
2022/01/29 09:40:20;;;;;;;21.03;15.80;;;;;;;;;;5016614;28;20187;-64
2022/01/29 09:42:47;;;;;;;19.87;15.17;;;;;;;;;;5018047;28;20183;-64
2022/01/29 09:45:14;;;;;;;18.53;15.90;;;;;;;;;;5018133;28;20195;-65
2022/01/29 09:47:41;;;;;;;19.23;16.03;;;;;;;;;;5017458;28;20204;-65
2022/01/29 09:50:08;;;;;;;21.03;15.97;;;;;;;;;;5017464;28;20617;-65
2022/01/29 09:52:34;;;;;;;22.10;15.60;;;;;;;;;;5017472;28;20184;-65
2022/01/29 09:55:00;;;;;;;16.00;13.00;;;;;;;;;;5016040;28;20687;-65
2022/01/29 09:57:26;;;;;;;21.30;16.57;;;;;;;;;;5016017;28;20684;-64
2022/01/29 09:59:52;;;;;;;17.97;15.00;;;;;;;;;;5017424;28;20204;-64
2022/01/29 10:02:18;;;;;;;17.30;14.53;;;;;;;;;;5016011;28;20679;-64
2022/01/29 10:04:46;;;;;;;19.20;14.43;;;;;;;;;;5016078;28;20223;-64
2022/01/29 10:07:16;;;;;;;20.23;15.67;;;;;;;;;;5017362;28;20259;-65
2022/01/29 10:09:42;;;;;;;17.00;13.60;;;;;;;;;;5017290;28;20640;-65
2022/01/29 10:12:15;;;;;;;14.03;12.60;;;;;;;;;;5016047;28;20184;-65
2022/01/29 10:14:52;;;;;;;18.50;13.97;;;;;;;;;;5017272;28;20187;-65
2022/01/29 10:17:37;;;;;;;16.60;13.07;;;;;;;;;;5015838;28;20302;-65
2022/01/29 10:20:06;;;;;;;15.47;13.40;;;;;;;;;;5015893;28;20184;-65
2022/01/29 10:22:36;;;;;;;12.30;10.57;;;;;;;;;;5017317;28;20267;-65
2022/01/29 10:25:06;;;;;;;17.33;13.53;;;;;;;;;;5015957;28;20180;-65
2022/01/29 10:27:32;;;;;;;15.17;11.67;;;;;;;;;;5015743;28;20203;-65
2022/01/29 10:29:59;;;;;;;14.83;13.00;;;;;;;;;;5015549;28;20223;-65
2022/01/29 10:32:25;;;;;;;14.90;12.03;;;;;;;;;;5015735;28;20191;-66
2022/01/29 10:34:55;;;;;;;14.63;12.07;;;;;;;;;;5016901;28;20184;-66
2022/01/29 10:37:23;;;;;;;16.87;12.40;;;;;;;;;;5014791;28;20255;-66
2022/01/29 10:40:00;;;;;;;20.70;14.57;;;;;;;;;;5015069;28;20663;-67
2022/01/29 10:42:32;;;;;;;21.80;13.20;;;;;;;;;;5016543;28;20168;-66
2022/01/29 10:45:01;;;;;;;14.53;12.30;;;;;;;;;;5014910;28;20186;-66
2022/01/29 10:47:28;;;;;;;15.70;13.53;;;;;;;;;;5014877;28;20235;-66
2022/01/29 10:49:59;;;;;;;13.67;11.93;;;;;;;;;;5015887;28;20191;-66
2022/01/29 10:52:29;;;;;;;18.40;14.37;;;;;;;;;;5016035;28;20187;-66
2022/01/29 10:54:59;;;;;;;20.93;15.03;;;;;;;;;;5014627;28;20566;-66
2022/01/29 10:57:31;;;;;;;17.13;14.03;;;;;;;;;;5015728;28;20236;-66
2022/01/29 10:59:56;;;;;;;16.53;11.33;;;;;;;;;;5016231;28;20164;-66
2022/01/29 11:02:26;;;;;;;15.10;12.63;;;;;;;;;;5015894;28;20176;-66
2022/01/29 11:04:52;;;;;;;15.90;12.43;;;;;;;;;;5014575;28;20176;-66
2022/01/29 11:07:23;;;;;;;14.47;11.83;;;;;;;;;;5015783;28;20183;-66
2022/01/29 11:09:52;;;;;;;13.40;10.20;;;;;;;;;;5015991;28;20156;-66
2022/01/29 11:12:20;;;;;;;15.40;11.10;;;;;;;;;;5015923;28;20203;-66
2022/01/29 11:14:47;;;;;;;14.30;11.63;;;;;;;;;;5015911;28;20261;-66
2022/01/29 11:17:15;;;;;;;12.60;10.20;;;;;;;;;;5015529;28;20211;-65
2022/01/29 11:19:41;;;;;;;13.20;10.17;;;;;;;;;;5014203;28;20180;-65
2022/01/29 11:22:08;;;;;;;12.33;9.73;;;;;;;;;;5015444;28;20254;-66
2022/01/29 11:24:35;;;;;;;11.27;8.70;;;;;;;;;;5015390;28;20249;-66
2022/01/29 11:27:02;;;;;;;11.40;9.50;;;;;;;;;;5015510;28;20191;-64
2022/01/29 11:29:35;;;;;;;13.47;9.97;;;;;;;;;;5014043;28;20192;-66
2022/01/29 11:32:25;;;;;;;12.53;9.40;;;;;;;;;;5015300;28;20182;-66
2022/01/29 11:34:59;;;;;;;12.00;9.83;;;;;;;;;;5015449;28;20167;-65
2022/01/29 11:37:58;;;;;;;12.97;9.80;;;;;;;;;;5013588;28;20218;-65
2022/01/29 11:40:27;;;;;;;11.37;9.97;;;;;;;;;;4982579;28;20194;-66
2022/01/29 11:42:56;;;;;;;13.87;10.57;;;;;;;;;;5015454;28;20176;-66
2022/01/29 11:45:34;;;;;;;12.37;9.27;;;;;;;;;;5014997;28;20187;-66
2022/01/29 11:48:00;;;;;;;14.10;10.20;;;;;;;;;;5013541;28;20717;-66
2022/01/29 11:50:29;;;;;;;9.13;8.23;;;;;;;;;;5013627;28;20184;-66
2022/01/29 11:53:00;;;;;;;9.60;8.43;;;;;;;;;;5015135;28;20180;-66
2022/01/29 11:55:40;;;;;;;9.07;7.20;;;;;;;;;;5015062;28;20191;-66
2022/01/29 11:58:18;;;;;;;10.03;8.23;;;;;;;;;;5014734;28;20261;-66
2022/01/29 12:00:48;;;;;;;8.20;7.40;;;;;;;;;;5014996;28;20175;-66
2022/01/29 12:03:44;;;;;;;9.90;7.17;;;;;;;;;;5014328;28;20168;-66
2022/01/29 12:08:59;;;;;;;7.20;6.50;;;;;;;;;;5014930;28;20200;-66
2022/01/29 12:11:25;;;;;;;7.80;6.77;;;;;;;;;;5013346;28;20187;-66
2022/01/29 12:14:10;;;;;;;8.57;6.40;;;;;;;;;;5014636;28;20184;-66
2022/01/29 12:16:49;;;;;;;7.60;6.03;;;;;;;;;;5014750;28;20183;-66
2022/01/29 12:19:33;;;;;;;7.03;6.13;;;;;;;;;;5014487;28;20187;-66
2022/01/29 12:22:00;;;;;;;6.30;5.43;;;;;;;;;;5013198;28;20179;-66
2022/01/29 12:24:26;;;;;;;7.07;6.27;;;;;;;;;;5014758;28;20210;-66
2022/01/29 12:26:58;;;;;;;5.87;5.27;;;;;;;;;;5013114;28;20203;-66
2022/01/29 12:29:24;;;;;;;6.23;5.57;;;;;;;;;;5014189;28;20664;-66
2022/01/29 12:31:52;;;;;;;6.70;5.50;;;;;;;;;;5013066;28;20215;-66
2022/01/29 12:34:20;;;;;;;5.20;4.30;;;;;;;;;;5014455;28;20268;-66
2022/01/29 12:36:46;;;;;;;7.27;6.20;;;;;;;;;;5014022;28;20263;-66
2022/01/29 12:39:20;;;;;;;6.67;5.70;;;;;;;;;;5013956;28;20294;-66
2022/01/29 12:42:00;;;;;;;5.67;5.13;;;;;;;;;;5014446;28;20190;-66
2022/01/29 12:44:26;;;;;;;6.00;4.80;;;;;;;;;;5013076;28;20563;-66
2022/01/29 12:46:52;;;;;;;5.03;4.63;;;;;;;;;;5014036;28;20180;-66
2022/01/29 12:49:18;;;;;;;5.43;4.93;;;;;;;;;;5013873;28;20232;-66
2022/01/29 12:51:53;;;;;;;4.80;4.40;;;;;;;;;;5013863;28;20175;-66
2022/01/29 12:54:19;;;;;;;5.37;4.40;;;;;;;;;;5014629;28;20552;-66
2022/01/29 12:56:45;;;;;;;5.80;5.20;;;;;;;;;;5014081;28;20175;-66
2022/01/29 12:59:12;;;;;;;6.00;4.67;;;;;;;;;;5013749;28;20215;-66
2022/01/29 13:01:39;;;;;;;5.90;5.30;;;;;;;;;;5013740;28;20206;-66
2022/01/29 13:04:05;;;;;;;4.90;4.50;;;;;;;;;;5014002;28;20175;-66
2022/01/29 13:06:31;;;;;;;4.73;4.23;;;;;;;;;;5012524;28;20206;-66
2022/01/29 13:09:12;;;;;;;5.97;4.93;;;;;;;;;;5013617;28;20199;-66
2022/01/29 13:11:38;;;;;;;5.07;4.63;;;;;;;;;;5014266;28;20180;-67
2022/01/29 13:14:15;;;;;;;6.30;4.77;;;;;;;;;;5013566;28;20178;-66
2022/01/29 13:16:41;;;;;;;6.73;4.63;;;;;;;;;;5012230;28;20220;-67
2022/01/29 13:19:07;;;;;;;7.50;4.00;;;;;;;;;;5013574;28;20192;-66
2022/01/29 13:21:33;;;;;;;4.43;4.03;;;;;;;;;;5012327;28;20611;-66
2022/01/29 13:24:00;;;;;;;5.30;4.80;;;;;;;;;;5013775;28;20180;-66
2022/01/29 13:26:30;;;;;;;4.67;4.27;;;;;;;;;;5013259;28;20751;-67
2022/01/29 13:29:03;;;;;;;4.90;4.47;;;;;;;;;;5013198;28;20199;-66
2022/01/29 13:31:29;;;;;;;7.50;4.90;;;;;;;;;;5013397;28;20222;-66
2022/01/29 13:33:57;;;;;;;6.40;4.53;;;;;;;;;;5013784;28;20577;-66
2022/01/29 13:36:34;;;;;;;6.37;5.77;;;;;;;;;;5012008;28;20252;-67
2022/01/29 13:39:07;;;;;;;9.47;7.23;;;;;;;;;;5012990;28;20218;-66
2022/01/29 13:41:32;;;;;;;11.40;7.70;;;;;;;;;;5013402;28;20172;-66
2022/01/29 13:44:08;;;;;;;9.23;6.63;;;;;;;;;;5013175;28;20209;-66
2022/01/29 13:46:34;;;;;;;10.70;8.30;;;;;;;;;;5013440;28;20160;-66
2022/01/29 13:49:02;;;;;;;10.00;7.30;;;;;;;;;;5013021;28;20203;-66
2022/01/29 13:51:36;;;;;;;7.67;5.87;;;;;;;;;;5011884;28;20199;-66
2022/01/29 13:54:03;;;;;;;9.20;6.57;;;;;;;;;;5013231;28;20694;-66
2022/01/29 13:56:30;;;;;;;8.60;6.40;;;;;;;;;;5013120;28;20191;-66
2022/01/29 13:58:59;;;;;;;4.43;3.87;;;;;;;;;;5012856;28;20211;-66
2022/01/29 14:01:40;;;;;;;9.13;6.90;;;;;;;;;;5012955;28;20545;-66
2022/01/29 14:06:48;;;;;;;7.73;6.00;;;;;;;;;;5050734;23;20222;-62
2022/01/29 14:09:26;;;;;;;10.30;8.40;;;;;;;;;;5034058;28;20627;-62
2022/01/29 14:11:59;;;;;;;5.53;4.53;;;;;;;;;;5032599;28;20265;-62
2022/01/29 14:14:26;;;;;;;16.93;10.33;;;;;;;;;;5033926;28;20175;-62
2022/01/29 14:16:53;;;;;;;6.83;5.17;;;;;;;;;;5034100;28;20183;-62
2022/01/29 14:19:20;;;;;;;7.90;6.10;;;;;;;;;;5034443;28;20170;-62
2022/01/29 14:21:46;;;;;;;5.73;5.17;;;;;;;;;;5033508;28;20674;-62
2022/01/29 14:24:13;;;;;;;5.77;5.00;;;;;;;;;;5034001;28;20168;-61
2022/01/29 14:26:39;;;;;;;4.77;4.20;;;;;;;;;;5036625;28;20195;-63
2022/01/29 14:29:05;;;;;;;5.10;4.03;;;;;;;;;;5037805;28;20181;-62
2022/01/29 14:31:31;;;;;;;5.67;4.43;;;;;;;;;;5036462;28;20666;-62
2022/01/29 14:33:57;;;;;;;3.97;3.67;;;;;;;;;;5036116;28;20232;-62
2022/01/29 14:36:23;;;;;;;4.20;3.87;;;;;;;;;;5037575;28;20713;-61
2022/01/29 14:38:49;;;;;;;6.83;5.47;;;;;;;;;;5036271;28;20671;-61
2022/01/29 14:41:15;;;;;;;4.80;4.27;;;;;;;;;;5037543;28;20663;-62
2022/01/29 14:43:41;;;;;;;4.40;4.00;;;;;;;;;;5037433;28;20242;-62
2022/01/29 14:46:06;;;;;;;5.37;4.70;;;;;;;;;;5037086;28;20227;-62